Time;durP1;ratioP1;P1;durP2;ratioP2;P2;SDS_P1;SDS_P2;PMS_P1;PMS_P2;Temp;Humidity;BMP_temperature;BMP_pressure;BME280_temperature;BME280_humidity;BME280_pressure;Samples;Min_cycle;Max_cycle;Signal;HPM_P1;HPM_P2
2023/02/24 00:02:21;;;;;;;6.68;3.60;;;;;;;8.88;58.91;99542.31;4948200;28;20126;-95
2023/02/24 00:04:53;;;;;;;4.63;3.25;;;;;;;8.88;58.59;99547.66;4932670;28;20090;-95
2023/02/24 00:07:32;;;;;;;6.30;3.13;;;;;;;8.92;58.81;99545.31;4931805;28;20039;-96
2023/02/24 00:10:05;;;;;;;10.95;4.03;;;;;;;8.99;58.92;99559.34;4932359;28;20114;-96
2023/02/24 00:12:39;;;;;;;5.60;3.15;;;;;;;8.98;58.83;99557.72;4930519;28;20031;-95
2023/02/24 00:15:27;;;;;;;7.15;3.58;;;;;;;8.90;58.91;99537.50;4931799;28;20110;-95
2023/02/24 00:18:31;;;;;;;9.02;4.43;;;;;;;8.84;59.74;99546.56;4934436;28;20031;-94
2023/02/24 00:21:14;;;;;;;8.27;3.65;;;;;;;8.85;59.73;99558.94;4950205;28;20039;-95
2023/02/24 00:24:00;;;;;;;5.53;3.13;;;;;;;8.81;59.88;99549.75;4933344;28;20035;-95
2023/02/24 00:26:34;;;;;;;9.10;3.35;;;;;;;8.64;59.93;99534.53;4933472;28;20127;-94
2023/02/24 00:29:13;;;;;;;6.75;3.38;;;;;;;8.64;59.87;99528.38;4930702;28;20027;-95
2023/02/24 00:31:45;;;;;;;8.07;3.47;;;;;;;8.69;60.09;99526.56;4932890;28;20039;-94
2023/02/24 00:34:42;;;;;;;7.63;3.25;;;;;;;8.72;60.29;99540.53;4946816;28;20035;-95
2023/02/24 00:37:28;;;;;;;7.57;3.63;;;;;;;8.78;59.74;99534.13;4936596;28;20042;-95
2023/02/24 00:40:15;;;;;;;6.80;3.30;;;;;;;8.68;60.08;99535.66;4932229;28;20042;-96
2023/02/24 00:43:00;;;;;;;3.70;2.58;;;;;;;8.79;59.64;99531.22;4931525;28;20074;-94
2023/02/24 00:45:31;;;;;;;8.70;3.03;;;;;;;8.66;59.97;99518.19;4933747;28;20103;-95
2023/02/24 00:48:10;;;;;;;4.63;2.85;;;;;;;8.77;59.69;99527.97;4930622;28;20537;-95
2023/02/24 00:50:42;;;;;;;5.35;3.03;;;;;;;8.78;59.53;99523.41;4931805;28;20492;-95
2023/02/24 00:53:29;;;;;;;5.28;3.05;;;;;;;8.86;59.50;99533.69;4932197;28;20030;-95
2023/02/24 00:56:05;;;;;;;10.10;3.20;;;;;;;8.73;59.75;99499.19;4935686;28;20023;-96
2023/02/24 00:58:45;;;;;;;5.60;2.78;;;;;;;8.77;59.67;99503.00;4931522;28;20034;-94
2023/02/24 01:01:23;;;;;;;7.32;3.08;;;;;;;8.77;59.17;99490.38;4931645;28;20031;-94
2023/02/24 01:03:50;;;;;;;4.88;2.67;;;;;;;8.72;59.71;99492.22;4931734;28;20039;-95
2023/02/24 01:06:25;;;;;;;5.65;2.83;;;;;;;8.73;59.82;99507.25;4929178;28;20030;-95
2023/02/24 01:09:00;;;;;;;6.57;3.40;;;;;;;8.81;59.37;99510.28;4931195;28;20552;-95
2023/02/24 01:14:56;;;;;;;8.32;3.40;;;;;;;8.66;59.18;99485.97;4908337;29;20479;-95
2023/02/24 01:17:36;;;;;;;6.63;2.55;;;;;;;8.70;59.56;99506.69;4889362;29;20043;-95
2023/02/24 01:20:17;;;;;;;6.38;2.72;;;;;;;8.67;59.43;99496.47;4923481;28;20039;-95
2023/02/24 01:22:58;;;;;;;6.25;2.47;;;;;;;8.70;59.35;99497.84;4932623;28;20466;-95
2023/02/24 01:25:32;;;;;;;6.05;2.33;;;;;;;8.67;59.37;99492.97;4931307;28;20038;-95
2023/02/24 01:28:04;;;;;;;5.28;2.30;;;;;;;8.69;58.91;99497.03;4930921;28;20030;-95
2023/02/24 01:30:46;;;;;;;3.33;2.03;;;;;;;8.62;59.03;99484.88;4930357;28;20030;-96
2023/02/24 01:33:20;;;;;;;3.92;2.00;;;;;;;8.68;58.98;99490.03;4933066;28;20035;-95
2023/02/24 01:35:54;;;;;;;4.80;2.42;;;;;;;8.57;58.97;99474.06;4931994;28;20066;-96
2023/02/24 01:38:27;;;;;;;3.70;2.20;;;;;;;8.65;59.59;99490.56;4930043;28;20030;-96
2023/02/24 01:41:05;;;;;;;3.67;2.35;;;;;;;8.58;59.38;99486.44;4930065;28;20061;-95
2023/02/24 01:44:08;;;;;;;3.10;2.15;;;;;;;8.41;59.87;99486.53;4931370;28;20023;-95
2023/02/24 01:47:03;;;;;;;3.78;2.13;;;;;;;8.43;59.50;99489.78;4960138;28;20109;-96
2023/02/24 01:49:40;;;;;;;5.40;2.10;;;;;;;8.35;59.76;99463.34;4931081;28;20071;-95
2023/02/24 01:52:25;;;;;;;4.22;1.95;;;;;;;8.50;59.14;99485.81;4929727;28;20058;-96
2023/02/24 01:55:20;;;;;;;2.90;2.05;;;;;;;8.50;59.27;99495.72;4931256;28;20038;-94
2023/02/24 01:58:08;;;;;;;6.35;2.38;;;;;;;8.38;59.32;99473.56;4944972;28;20504;-95
2023/02/24 02:00:45;;;;;;;3.45;2.28;;;;;;;8.37;59.41;99463.91;4931110;28;20039;-95
2023/02/24 02:03:47;;;;;;;3.90;2.40;;;;;;;8.49;59.08;99481.50;4931829;28;20065;-96
2023/02/24 02:06:45;;;;;;;5.60;2.50;;;;;;;8.42;59.35;99478.19;4892041;29;20046;-95
2023/02/24 02:09:58;;;;;;;4.05;2.15;;;;;;;8.34;59.74;99473.25;4851062;29;20125;-95
2023/02/24 02:12:56;;;;;;;3.28;2.00;;;;;;;8.41;59.53;99484.66;4843666;29;20040;-95
2023/02/24 02:15:56;;;;;;;4.65;2.40;;;;;;;8.35;59.83;99488.31;4879730;29;20133;-94
2023/02/24 02:18:59;;;;;;;3.58;2.10;;;;;;;8.34;59.58;99491.22;4890232;29;20064;-95
2023/02/24 02:21:49;;;;;;;3.30;2.50;;;;;;;8.36;59.51;99491.78;4895031;29;20036;-94
2023/02/24 02:24:57;;;;;;;2.65;1.88;;;;;;;8.36;59.33;99495.28;4877984;29;20050;-95
2023/02/24 02:27:45;;;;;;;3.88;2.50;;;;;;;8.35;59.11;99493.66;4891490;29;20036;-96
2023/02/24 02:30:42;;;;;;;;;;;;;;;;;;;;;
2023/02/24 02:33:34;;;;;;;7.75;2.30;;;;;;;8.46;59.12;99494.63;4953758;28;20091;-96
2023/02/24 02:36:12;;;;;;;3.30;1.92;;;;;;;8.47;59.47;99483.63;4963179;28;20033;-95
2023/02/24 02:38:57;;;;;;;3.72;2.30;;;;;;;8.40;59.04;99476.81;4948117;28;20041;-94
2023/02/24 02:41:51;;;;;;;4.18;2.20;;;;;;;8.43;59.10;99476.34;4933123;28;20581;-95
2023/02/24 02:44:44;;;;;;;2.65;2.03;;;;;;;8.43;59.04;99485.22;4934557;28;20031;-94
2023/02/24 02:47:17;;;;;;;;;;;;;;;8.46;59.03;99489.25;4948547;28;20042;-95
2023/02/24 02:50:01;;;;;;;4.80;2.15;;;;;;;8.27;60.07;99492.22;4930156;29;19910;-95
2023/02/24 02:53:01;;;;;;;3.10;2.20;;;;;;;8.07;60.03;99473.19;4912902;29;20027;-95
2023/02/24 02:55:53;;;;;;;2.67;2.00;;;;;;;7.96;60.38;99468.78;4915501;29;20070;-95
2023/02/24 02:58:29;;;;;;;3.92;2.30;;;;;;;8.07;60.39;99486.59;4914343;29;20473;-95
2023/02/24 03:01:10;;;;;;;4.90;2.97;;;;;;;8.17;60.16;99485.94;4914709;29;20039;-96
2023/02/24 03:03:45;;;;;;;3.55;2.38;;;;;;;8.07;60.16;99476.72;4916680;29;20063;-95
2023/02/24 03:06:19;;;;;;;4.15;2.38;;;;;;;8.23;59.63;99477.69;4914111;29;20031;-96
2023/02/24 03:09:10;;;;;;;4.72;2.40;;;;;;;8.20;59.52;99467.47;4928866;29;20031;-95
2023/02/24 03:11:48;;;;;;;4.97;2.38;;;;;;;8.24;59.70;99479.31;4917445;29;20058;-95
2023/02/24 03:14:36;;;;;;;8.15;3.22;;;;;;;8.16;59.94;99479.75;4913947;29;20031;-95
2023/02/24 03:17:54;;;;;;;3.75;2.22;;;;;;;8.18;60.12;99471.47;4934140;29;20027;-96
2023/02/24 03:21:08;;;;;;;;;;;;;;;;;;;;;
2023/02/24 03:24:19;;;;;;;;;;;;;;;;;;;;;
2023/02/24 03:27:37;;;;;;;;;;;;;;;;;;;;;
2023/02/24 03:31:16;;;;;;;;;;;;;;;;;;;;;
2023/02/24 04:22:31;;;;;;;9.00;4.40;;;;;;;8.22;60.16;99448.47;5198221;23;20450;-94
2023/02/24 04:25:12;;;;;;;7.53;4.32;;;;;;;8.24;60.52;99447.13;4912250;29;20036;-96
2023/02/24 04:39:12;;;;;;;7.63;4.35;;;;;;;8.17;60.92;99430.41;5826966;23;20054;-95
2023/02/24 04:46:32;;;;;;;;;;;;;;;;;;;;;
2023/02/24 05:03:06;;;;;;;6.72;4.75;;;;;;;8.17;60.56;99395.53;4800015;29;20487;-95
2023/02/24 05:05:38;;;;;;;9.52;5.32;;;;;;;8.26;60.46;99414.72;4773992;29;20046;-95
2023/02/24 05:08:08;;;;;;;10.23;5.90;;;;;;;8.23;60.22;99399.91;4830203;29;20041;-95
2023/02/24 05:11:02;;;;;;;8.70;5.15;;;;;;;8.27;59.71;99398.34;4851144;29;20076;-94
2023/02/24 05:13:36;;;;;;;6.53;5.00;;;;;;;8.42;59.62;99410.31;4884478;29;20484;-94
2023/02/24 05:16:06;;;;;;;15.63;8.40;;;;;;;8.39;60.07;99421.53;4853215;29;20499;-95
2023/02/24 05:18:36;;;;;;;9.77;6.25;;;;;;;8.32;60.03;99416.34;4850360;29;20040;-94
2023/02/24 05:24:07;;;;;;;8.85;5.78;;;;;;;8.42;59.60;99423.72;4873313;29;20173;-94
2023/02/24 05:26:41;;;;;;;14.13;6.68;;;;;;;8.50;59.53;99423.28;4851619;29;20060;-93
2023/02/24 05:29:12;;;;;;;17.15;6.18;;;;;;;8.53;59.65;99427.31;4851376;29;20037;-95
2023/02/24 05:31:44;;;;;;;11.00;5.38;;;;;;;8.50;59.32;99410.66;4850501;29;20444;-94
2023/02/24 05:34:19;;;;;;;7.80;5.55;;;;;;;8.53;59.21;99419.28;4850614;29;20124;-93
2023/02/24 05:36:46;;;;;;;9.30;5.22;;;;;;;8.53;59.00;99408.53;4868305;29;20033;-95
2023/02/24 05:39:17;;;;;;;8.15;5.22;;;;;;;8.59;58.56;99408.34;4851029;29;20660;-94
2023/02/24 05:41:55;;;;;;;;;;;;;;;8.67;58.50;99432.06;4864196;29;20039;-95
2023/02/24 05:44:24;;;;;;;8.43;5.15;;;;;;;8.64;58.46;99431.75;4912399;29;19974;-95
2023/02/24 05:46:57;;;;;;;12.23;5.78;;;;;;;8.69;58.21;99434.47;4893055;29;20040;-94
2023/02/24 05:49:51;;;;;;;8.50;5.13;;;;;;;8.68;58.14;99416.75;4894879;29;20028;-95
2023/02/24 05:52:17;;;;;;;7.47;4.95;;;;;;;8.83;57.97;99432.19;4913207;29;20027;-94
2023/02/24 05:54:44;;;;;;;11.80;6.25;;;;;;;8.86;57.86;99429.81;4892989;29;20019;-94
2023/02/24 05:57:15;;;;;;;9.15;5.05;;;;;;;8.98;57.32;99426.13;4895689;29;20023;-92
2023/02/24 05:59:43;;;;;;;10.02;5.30;;;;;;;9.05;57.00;99421.38;4907370;29;20114;-94
2023/02/24 06:02:14;;;;;;;9.05;5.57;;;;;;;9.17;56.33;99439.97;4891641;29;20167;-94
2023/02/24 06:04:49;;;;;;;12.35;5.90;;;;;;;9.13;56.41;99431.63;4890391;29;20024;-94
2023/02/24 06:07:26;;;;;;;11.10;6.53;;;;;;;9.15;56.05;99425.97;4907418;29;20036;-93
2023/02/24 06:09:56;;;;;;;11.02;6.95;;;;;;;9.32;56.01;99442.78;4907930;29;20510;-94
2023/02/24 06:12:23;;;;;;;11.82;6.97;;;;;;;9.25;55.84;99426.06;4907114;29;20544;-96
2023/02/24 06:14:49;;;;;;;14.30;6.60;;;;;;;9.43;55.94;99443.66;4907098;29;20023;-93
2023/02/24 06:17:15;;;;;;;13.45;6.85;;;;;;;9.41;56.08;99427.78;4907961;29;20038;-93
2023/02/24 06:20:12;;;;;;;11.25;5.55;;;;;;;9.44;55.80;99419.22;4909159;29;20023;-94
2023/02/24 06:22:41;;;;;;;17.10;6.82;;;;;;;9.48;56.13;99436.44;4927070;29;20116;-94
2023/02/24 06:25:19;;;;;;;7.40;5.00;;;;;;;9.67;55.42;99427.91;4909224;29;20088;-93
2023/02/24 06:27:44;;;;;;;11.27;6.68;;;;;;;9.67;55.16;99414.47;4909167;29;20082;-95
2023/02/24 06:30:18;;;;;;;21.52;13.07;;;;;;;9.66;54.83;99400.22;4907678;29;20008;-93
2023/02/24 06:32:44;;;;;;;10.93;6.15;;;;;;;9.78;54.20;99404.59;4926771;29;20087;-94
2023/02/24 06:35:41;;;;;;;15.40;8.52;;;;;;;9.89;54.38;99404.34;4911104;29;20023;-94
2023/02/24 06:41:44;;;;;;;9.27;5.10;;;;;;;10.14;54.09;99427.03;4986639;28;20055;-94
2023/02/24 06:45:02;;;;;;;13.75;5.55;;;;;;;10.14;54.06;99435.13;4925221;28;20130;-94
2023/02/24 06:47:45;;;;;;;14.65;6.22;;;;;;;10.18;53.53;99421.94;4898853;28;20085;-96
2023/02/24 06:50:27;;;;;;;15.95;7.68;;;;;;;10.26;53.89;99422.25;4946524;28;20022;-95
2023/02/24 06:52:54;;;;;;;12.38;5.68;;;;;;;10.30;53.17;99404.53;4955629;28;20047;-95
2023/02/24 06:55:49;;;;;;;16.35;7.65;;;;;;;10.54;52.46;99420.16;4934533;28;20094;-94
2023/02/24 06:58:16;;;;;;;18.13;7.72;;;;;;;10.47;53.31;99403.47;4888300;29;20530;-93
2023/02/24 07:00:45;;;;;;;9.48;5.68;;;;;;;10.63;51.83;99398.94;4873283;29;20068;-93
2023/02/24 07:03:15;;;;;;;12.10;5.60;;;;;;;10.85;51.37;99420.19;4873440;29;20056;-92
2023/02/24 07:06:28;;;;;;;14.45;6.78;;;;;;;10.97;50.81;99411.88;4879811;29;20044;-95
2023/02/24 07:09:22;;;;;;;11.43;7.07;;;;;;;10.90;50.89;99406.75;4898736;29;20106;-94
2023/02/24 07:11:54;;;;;;;10.40;5.95;;;;;;;11.06;50.65;99410.22;4873991;29;20681;-94
2023/02/24 07:14:31;;;;;;;19.83;6.18;;;;;;;11.06;50.92;99396.75;4895066;29;20418;-95
2023/02/24 07:19:53;;;;;;;11.50;5.68;;;;;;;10.86;51.42;99394.91;4877478;29;20040;-94
2023/02/24 07:22:23;;;;;;;9.52;5.75;;;;;;;11.14;50.97;99404.28;4900626;28;20046;-94
2023/02/24 07:25:00;;;;;;;14.13;6.53;;;;;;;11.20;51.02;99383.53;4957603;28;20027;-95
2023/02/24 07:27:38;;;;;;;18.88;6.28;;;;;;;11.31;50.72;99401.34;4938460;28;20050;-96
2023/02/24 07:31:01;;;;;;;;;;;;;;;;;;;;;
2023/02/24 07:33:48;;;;;;;14.55;5.97;;;;;;;11.13;52.11;99379.25;4847248;29;20084;-93
2023/02/24 07:36:56;;;;;;;11.57;5.70;;;;;;;11.21;50.92;99379.78;4848683;29;20034;-94
2023/02/24 07:46:18;;;;;;;13.65;6.45;;;;;;;11.15;51.79;99360.13;5229156;23;20059;-94
2023/02/24 07:52:20;;;;;;;21.65;8.45;;;;;;;11.17;53.83;99357.16;4973729;28;20416;-94
2023/02/24 08:08:29;;;;;;;12.93;7.03;;;;;;;10.85;57.74;99360.94;5270705;23;20050;-94
2023/02/24 08:11:09;;;;;;;12.77;7.10;;;;;;;10.96;58.14;99376.03;4953845;28;20053;-96
2023/02/24 08:14:01;;;;;;;15.10;7.28;;;;;;;10.81;57.50;99367.94;4952712;28;20047;-95
2023/02/24 08:16:41;;;;;;;14.82;8.02;;;;;;;10.89;58.72;99360.16;4949413;28;20037;-96
2023/02/24 08:22:04;;;;;;;;;;;;;;;;;;;;;
2023/02/24 08:38:13;;;;;;;19.05;10.30;;;;;;;10.81;64.53;99367.94;2040732;23;20369;-92
2023/02/24 08:46:27;;;;;;;16.88;9.10;;;;;;;11.21;62.76;99340.16;5106818;23;20054;-95
2023/02/24 08:49:16;;;;;;;15.13;8.73;;;;;;;11.35;61.35;99342.25;4948614;29;20027;-94
2023/02/24 08:51:47;;;;;;;18.42;11.00;;;;;;;11.33;63.48;99354.16;4919498;29;20053;-94
2023/02/24 08:54:47;;;;;;;65.75;31.38;;;;;;;11.36;62.73;99346.59;4917818;29;20038;-95
2023/02/24 08:57:50;;;;;;;29.33;14.98;;;;;;;11.20;64.87;99352.00;4937487;29;20131;-95
2023/02/24 09:00:52;;;;;;;18.73;12.80;;;;;;;11.02;65.79;99356.09;4871740;29;20044;-94
2023/02/24 09:06:56;;;;;;;252.02;93.22;;;;;;;11.37;63.29;99353.59;4782185;30;20043;-93
2023/02/24 09:09:37;;;;;;;60.08;28.45;;;;;;;11.19;62.61;99346.91;4825865;29;20045;-95
2023/02/24 09:12:27;;;;;;;142.00;79.22;;;;;;;11.32;64.21;99354.41;4842793;29;20041;-94
2023/02/24 09:15:09;;;;;;;27.17;17.55;;;;;;;11.41;62.87;99347.38;4855554;29;20041;-95
2023/02/24 09:37:37;;;;;;;21.58;10.52;;;;;;;11.73;59.29;99333.50;4981341;28;20061;-96
2023/02/24 09:50:13;;;;;;;16.20;8.63;;;;;;;11.57;61.06;99313.06;4994248;28;20049;-95
2023/02/24 10:10:26;;;;;;;16.95;10.57;;;;;;;11.38;60.75;99250.88;1606175;23;20322;-90
2023/02/24 10:13:46;;;;;;;;;;;;;;;;;;;;;
2023/02/24 10:16:14;;;;;;;16.58;9.13;;;;;;;11.61;59.83;99240.53;4961741;29;20122;-96
2023/02/24 10:19:33;;;;;;;18.88;10.65;;;;;;;11.48;60.38;99228.47;4926259;29;20035;-95
2023/02/24 10:22:26;;;;;;;16.92;10.32;;;;;;;11.62;60.19;99237.56;4943694;29;20119;-94
2023/02/24 10:25:16;;;;;;;23.13;12.32;;;;;;;11.66;61.00;99224.28;4945803;29;20023;-93
2023/02/24 10:28:20;;;;;;;17.58;9.90;;;;;;;11.81;60.08;99226.91;4917226;29;20036;-94
2023/02/24 10:31:08;;;;;;;24.73;16.50;;;;;;;11.95;60.08;99219.00;4948178;29;20125;-96
2023/02/24 10:33:43;;;;;;;19.30;9.80;;;;;;;11.88;59.47;99196.91;4934854;29;20035;-96
2023/02/24 10:39:48;;;;;;;23.83;11.57;;;;;;;12.10;58.45;99204.63;4932898;29;20042;-96
2023/02/24 10:42:46;;;;;;;;;;;;;;;;;;;;;
2023/02/24 10:45:30;;;;;;;16.15;10.65;;;;;;;12.06;59.55;99174.69;4946689;29;20039;-94
2023/02/24 10:48:11;;;;;;;20.92;11.77;;;;;;;11.97;59.94;99170.16;4918391;29;20031;-95
2023/02/24 10:50:42;;;;;;;34.03;18.88;;;;;;;12.13;59.16;99168.94;4915567;29;20031;-96
2023/02/24 10:53:33;;;;;;;18.13;10.00;;;;;;;12.25;58.90;99155.06;4916170;29;20055;-95
2023/02/24 11:02:44;;;;;;;15.55;9.60;;;;;;;12.30;58.68;99158.50;4907322;29;20547;-93
2023/02/24 11:17:17;;;;;;;15.95;9.68;;;;;;;12.87;56.65;99123.59;4895463;29;20107;-94
2023/02/24 11:20:37;;;;;;;18.00;9.13;;;;;;;13.07;56.64;99119.84;4878534;29;20430;-95
2023/02/24 11:23:28;;;;;;;16.20;9.57;;;;;;;13.08;56.82;99102.50;4908372;29;20039;-91
2023/02/24 11:26:31;;;;;;;;;;;;;;;;;;;;;
2023/02/24 11:29:02;;;;;;;12.07;7.03;;;;;;;13.19;56.01;99113.97;4933571;29;20118;-96
2023/02/24 11:31:40;;;;;;;14.45;7.43;;;;;;;12.96;56.32;99114.84;4938088;29;20055;-95
2023/02/24 11:34:48;;;;;;;15.27;8.27;;;;;;;12.91;56.45;99115.72;4939320;29;20027;-96
2023/02/24 11:37:50;;;;;;;12.43;7.68;;;;;;;12.53;57.02;99096.72;4884674;29;20137;-95
2023/02/24 11:40:28;;;;;;;12.35;7.25;;;;;;;11.92;58.81;99093.56;4921877;29;20031;-95
2023/02/24 11:51:35;;;;;;;13.40;7.82;;;;;;;11.75;59.83;99108.56;5330329;23;20279;-96
2023/02/24 11:55:02;;;;;;;12.65;8.38;;;;;;;11.75;59.50;99085.06;4967801;28;20027;-96
2023/02/24 11:57:57;;;;;;;;;;;;;;;;;;;;;
2023/02/24 12:00:51;;;;;;;15.98;8.32;;;;;;;11.55;60.29;99086.03;4888095;29;20071;-96
2023/02/24 12:04:08;;;;;;;14.02;7.60;;;;;;;11.50;61.18;99104.97;5067501;23;20055;-93
2023/02/24 12:06:45;;;;;;;13.63;8.35;;;;;;;11.39;61.78;99098.00;5008834;23;20054;31
2023/02/24 12:14:40;;;;;;;13.85;8.32;;;;;;;11.88;60.70;99067.41;5006257;23;20047;-94
2023/02/24 12:17:32;;;;;;;14.55;9.43;;;;;;;11.93;60.90;99086.28;4927097;29;20035;-94
2023/02/24 12:20:22;;;;;;;15.85;9.07;;;;;;;11.80;60.27;99066.13;4946342;29;20039;-95
2023/02/24 12:22:59;;;;;;;21.70;8.95;;;;;;;11.53;61.28;99058.56;4915878;29;20123;-92
2023/02/24 12:25:30;;;;;;;15.57;8.88;;;;;;;11.32;61.77;99055.22;4928794;29;20035;-93
2023/02/24 12:28:20;;;;;;;16.85;9.77;;;;;;;11.46;62.02;99056.19;4912328;29;20023;-93
2023/02/24 12:31:23;;;;;;;15.77;9.43;;;;;;;11.63;62.60;99069.25;4932878;29;20031;-94
2023/02/24 12:34:27;;;;;;;15.13;9.38;;;;;;;11.30;63.32;99052.00;4946548;29;20023;-94
2023/02/24 12:37:20;;;;;;;15.13;9.40;;;;;;;11.70;61.96;99077.84;4967264;29;20423;-93
2023/02/24 12:43:05;;;;;;;21.10;10.57;;;;;;;11.50;62.33;99043.75;5084216;23;20062;-94
2023/02/24 12:45:57;;;;;;;14.45;9.60;;;;;;;11.45;63.01;99049.16;4952546;29;20070;-94
2023/02/24 12:48:44;;;;;;;15.40;9.20;;;;;;;11.40;63.66;99075.38;4937762;29;20390;-96
2023/02/24 12:52:08;;;;;;;16.42;10.75;;;;;;;11.33;63.29;99037.97;4972490;29;20445;-94
2023/02/24 12:54:52;;;;;;;17.83;10.98;;;;;;;11.47;64.28;99062.38;4892810;29;20043;-96
2023/02/24 12:57:55;;;;;;;19.73;10.75;;;;;;;11.47;63.07;99049.69;4962467;29;20023;-95
2023/02/24 13:00:35;;;;;;;19.75;12.27;;;;;;;11.67;62.44;99061.41;4963545;29;20019;-95
2023/02/24 13:03:26;;;;;;;31.90;16.00;;;;;;;11.63;62.45;99057.66;4961970;29;20031;-96
2023/02/24 13:09:01;;;;;;;18.40;11.50;;;;;;;11.62;62.86;99056.03;5147662;23;20080;-96
2023/02/24 13:13:01;;;;;;;;;;;;;;;;;;;;;
2023/02/24 13:15:42;;;;;;;;;;;;;;;11.72;61.90;99051.38;4844325;29;20104;-96
2023/02/24 13:18:40;;;;;;;22.88;13.40;;;;;;;11.59;62.55;99037.75;4919748;29;19918;-95
2023/02/24 13:21:21;;;;;;;14.75;9.52;;;;;;;11.56;61.89;99035.59;4937745;29;20027;-96
2023/02/24 13:23:58;;;;;;;13.55;8.77;;;;;;;11.68;62.15;99036.03;4935839;29;20027;-96
2023/02/24 13:26:24;;;;;;;14.60;9.55;;;;;;;11.71;61.87;99022.00;4916795;29;20069;-94
2023/02/24 13:29:12;;;;;;;16.60;10.65;;;;;;;11.97;61.43;99036.03;4932961;29;20057;-94
2023/02/24 13:32:17;;;;;;;22.70;11.77;;;;;;;12.20;60.72;99039.88;4918622;29;20063;-95
2023/02/24 13:34:46;;;;;;;23.63;11.23;;;;;;;12.26;60.37;99033.28;4934944;29;20035;-95
2023/02/24 13:37:15;;;;;;;15.60;9.30;;;;;;;12.27;60.01;99028.72;4920073;29;20043;-96
2023/02/24 13:39:49;;;;;;;16.75;8.80;;;;;;;12.23;60.36;99022.28;4920213;29;20569;-95
2023/02/24 13:42:36;;;;;;;16.25;9.95;;;;;;;12.36;60.22;99015.38;4921589;29;20035;-96
2023/02/24 13:45:17;;;;;;;16.67;9.18;;;;;;;12.43;59.59;99016.66;4919380;29;20450;-95
2023/02/24 13:48:27;;;;;;;;;;;;;;;;;;;;;
2023/02/24 13:51:21;;;;;;;18.67;9.68;;;;;;;12.52;59.72;99009.50;4961240;29;20106;-94
2023/02/24 13:54:12;;;;;;;15.32;9.75;;;;;;;12.58;59.48;99006.75;4927420;29;20424;-93
2023/02/24 13:56:47;;;;;;;21.50;11.48;;;;;;;12.71;59.33;99024.94;4923555;29;20031;-94
2023/02/24 13:59:27;;;;;;;16.10;9.88;;;;;;;12.67;58.94;99003.09;4937539;29;20043;-95
2023/02/24 14:02:22;;;;;;;14.40;9.98;;;;;;;12.73;59.64;99017.34;4938212;29;20031;-96
2023/02/24 14:05:25;;;;;;;14.27;9.13;;;;;;;12.63;59.47;99002.06;4936997;29;20040;-96
2023/02/24 14:07:59;;;;;;;21.38;10.63;;;;;;;12.52;59.88;98992.50;4951630;28;20054;-95
2023/02/24 14:10:37;;;;;;;18.77;10.13;;;;;;;12.45;60.25;99016.34;4937766;28;20125;-94
2023/02/24 14:13:46;;;;;;;;;;;;;;;;;;;;;
2023/02/24 14:16:21;;;;;;;19.42;11.50;;;;;;;12.32;60.67;98994.34;4965474;28;20086;-95
2023/02/24 14:19:00;;;;;;;14.73;9.45;;;;;;;12.19;61.10;98994.28;4950513;28;20026;-95
2023/02/24 14:22:16;;;;;;;22.02;10.70;;;;;;;12.02;61.70;98978.56;4940060;28;20034;-96
2023/02/24 14:25:02;;;;;;;16.38;9.60;;;;;;;11.96;62.55;99003.97;4968748;28;20035;-95
2023/02/24 14:27:52;;;;;;;19.65;9.52;;;;;;;11.95;62.27;98983.47;4935845;28;20027;-95
2023/02/24 14:30:36;;;;;;;17.52;10.70;;;;;;;12.13;61.89;98999.72;4873010;29;20448;-94
2023/02/24 14:33:05;;;;;;;16.70;10.50;;;;;;;11.96;62.41;98987.78;4948477;28;20481;-94
2023/02/24 14:36:01;;;;;;;14.50;9.93;;;;;;;11.96;62.40;98995.88;4947501;28;20018;-93
2023/02/24 14:38:43;;;;;;;22.58;13.13;;;;;;;12.11;61.99;98993.00;4932143;28;20069;-95
2023/02/24 14:41:58;;;;;;;16.73;9.98;;;;;;;12.12;62.44;98997.31;4928508;29;20055;-96
2023/02/24 14:44:48;;;;;;;16.30;9.95;;;;;;;11.91;62.71;98986.75;4927247;29;20054;-96
2023/02/24 14:47:36;;;;;;;14.57;9.85;;;;;;;11.93;61.99;98973.78;4900266;29;20035;-95
2023/02/24 14:50:19;;;;;;;15.98;11.02;;;;;;;12.12;61.91;98978.44;4898127;29;20032;-96
2023/02/24 14:52:51;;;;;;;17.02;10.38;;;;;;;12.27;61.83;98989.03;4913797;29;20035;-95
2023/02/24 14:55:22;;;;;;;14.27;9.23;;;;;;;12.16;62.25;98982.16;4909603;29;20031;-94
2023/02/24 14:58:25;;;;;;;15.82;10.23;;;;;;;12.21;62.30;98986.69;4892360;29;20083;-94
2023/02/24 15:00:54;;;;;;;16.73;10.00;;;;;;;12.13;62.23;98966.53;4921188;29;20096;-93
2023/02/24 15:03:41;;;;;;;13.68;9.73;;;;;;;12.22;62.39;98974.78;4892058;29;20099;-94
2023/02/24 15:06:17;;;;;;;12.35;8.98;;;;;;;12.02;62.39;98957.75;4928619;29;20087;-96
2023/02/24 15:08:52;;;;;;;17.55;9.73;;;;;;;12.16;62.42;98967.84;4909802;29;20065;-95
2023/02/24 15:12:14;;;;;;;15.32;9.98;;;;;;;11.99;62.53;98952.91;4897348;28;20043;-96
2023/02/24 15:14:42;;;;;;;20.03;10.40;;;;;;;12.08;62.52;98958.50;4920774;28;20026;-93
2023/02/24 15:17:41;;;;;;;13.45;9.07;;;;;;;12.09;62.39;98957.41;4931311;28;20760;-94
2023/02/24 15:21:10;;;;;;;;;;;;;;;;;;;;;
2023/02/24 15:23:45;;;;;;;21.45;12.10;;;;;;;12.02;62.90;98962.34;4988048;28;20098;-96
2023/02/24 15:26:30;;;;;;;23.23;12.65;;;;;;;12.01;63.51;98987.72;4960262;28;20049;-96
2023/02/24 15:29:47;;;;;;;28.85;18.40;;;;;;;12.05;63.37;98978.75;4941470;28;20038;-94
2023/02/24 15:32:39;;;;;;;23.27;11.90;;;;;;;11.95;63.04;98976.16;4879686;29;20280;-96
2023/02/24 15:35:26;;;;;;;30.07;15.73;;;;;;;11.86;63.26;98972.47;4888528;29;20068;-95
2023/02/24 15:37:53;;;;;;;27.80;16.33;;;;;;;11.73;63.47;98963.97;4873311;29;20506;-96
2023/02/24 15:40:20;;;;;;;24.48;14.30;;;;;;;11.70;63.48;98961.88;4872781;29;20115;-94
2023/02/24 15:42:53;;;;;;;36.28;18.90;;;;;;;11.65;63.89;98961.09;4964171;23;20058;-95
2023/02/24 15:45:25;;;;;;;57.75;31.55;;;;;;;11.60;64.06;98961.16;4966448;28;20034;-95
2023/02/24 15:47:53;;;;;;;25.70;15.68;;;;;;;11.47;64.74;98947.25;4964866;28;20042;-92
2023/02/24 15:50:19;;;;;;;20.90;12.23;;;;;;;11.38;64.95;98943.56;4981387;28;20445;-95
2023/02/24 15:52:44;;;;;;;18.35;12.48;;;;;;;11.35;65.45;98954.94;4950120;28;20077;-95
2023/02/24 15:55:10;;;;;;;23.30;15.52;;;;;;;11.40;65.46;98965.66;4948850;28;20027;-93
2023/02/24 15:57:36;;;;;;;26.27;17.20;;;;;;;11.36;65.03;98956.53;4964588;28;20488;-93
2023/02/24 16:00:12;;;;;;;28.40;17.65;;;;;;;11.40;64.95;98962.97;4964866;28;20548;-93
2023/02/24 16:02:38;;;;;;;27.48;17.40;;;;;;;11.43;65.07;98966.97;4980795;28;20022;-95
2023/02/24 16:05:08;;;;;;;30.23;18.85;;;;;;;11.50;65.07;98975.56;4965644;28;20030;-93
2023/02/24 16:07:36;;;;;;;24.83;16.67;;;;;;;11.44;64.95;98968.59;4949231;28;20064;-93
2023/02/24 16:10:13;;;;;;;28.73;17.90;;;;;;;11.48;64.87;98975.81;4982005;28;20057;-94
2023/02/24 16:12:45;;;;;;;23.60;14.93;;;;;;;11.39;64.96;98958.63;4964782;28;20069;-94
2023/02/24 16:15:15;;;;;;;24.73;14.77;;;;;;;11.46;65.25;98972.59;4948520;28;20094;-93
2023/02/24 16:17:41;;;;;;;22.60;12.70;;;;;;;11.31;65.12;98941.22;4949092;28;20037;-94
2023/02/24 16:20:16;;;;;;;23.92;13.73;;;;;;;11.39;64.68;98952.44;4948914;28;20440;-95
2023/02/24 16:22:42;;;;;;;21.70;12.13;;;;;;;11.42;64.54;98951.91;4951005;28;20038;-95
2023/02/24 16:25:10;;;;;;;20.85;12.63;;;;;;;11.46;64.82;98951.03;4948774;28;20026;-94
2023/02/24 16:27:37;;;;;;;21.42;12.73;;;;;;;11.48;65.10;98961.53;4980240;28;20031;-94
2023/02/24 16:30:03;;;;;;;21.70;14.38;;;;;;;11.26;65.33;98937.75;4948368;28;20019;-94
2023/02/24 16:32:32;;;;;;;23.30;14.15;;;;;;;11.24;65.77;98946.09;4949449;28;20543;-94
2023/02/24 16:35:19;;;;;;;;;;;;;;;;;;;;;
2023/02/24 16:38:02;;;;;;;21.10;13.95;;;;;;;11.07;65.50;98935.75;4978146;28;20090;-96
2023/02/24 16:40:51;;;;;;;26.70;16.30;;;;;;;11.09;65.70;98938.16;4952204;29;20548;-94
2023/02/24 16:43:24;;;;;;;26.55;16.13;;;;;;;11.18;65.75;98959.91;5151782;23;20047;-95
2023/02/24 16:46:20;;;;;;;26.85;16.33;;;;;;;11.13;65.82;98961.56;4955801;28;20045;-95
2023/02/24 16:48:59;;;;;;;31.25;20.23;;;;;;;10.97;66.63;98973.53;4932405;29;20036;-96
2023/02/24 16:51:42;;;;;;;42.67;23.95;;;;;;;11.00;66.23;98973.00;4930429;29;20051;-96
2023/02/24 16:54:28;;;;;;;37.35;22.60;;;;;;;10.97;66.30;98956.59;4930284;29;20063;-96
2023/02/24 16:57:00;;;;;;;34.92;23.17;;;;;;;10.91;66.65;98956.63;4929039;29;20510;-96
2023/02/24 16:59:29;;;;;;;36.88;23.13;;;;;;;11.00;66.59;98991.84;4977992;23;20051;-96
2023/02/24 17:04:58;;;;;;;133.25;46.00;;;;;;;10.95;66.99;98975.72;4980083;23;20063;-95